Latest Weather Observations for Lucas Heights

IDN60801

Issued at 8:32 pm EST Monday 3 August 2015 (issued every 30 minutes, with the page automatically refreshed every 10 minutes)

About weather observations | Map of weather stations | Latest weather observations for NSW | Other Formats
Station Details ID: 066023 Name: LUCAS HEIGHTS AWS Lat: -34.05 Lon: 150.98 Height: 140.0 m
Data from the previous 72 hours. | See also: Recent months for locations in New South Wales
Date/Time
EST
Temp
°C
App
Temp
°C
Dew
Point
Rel
Hum
%
Delta-T
°C
Wind Press
QNH
hPa
Press
MSL
hPa
Rain
since 9 am
mm
Dir
 
Spd
km/h
Gust
km/h
Spd
kts
Gust
kts
03/08:15pm 10.3 4.4 1.9 56 3.6 WSW 22 33 12 18 1019.9 - 0.0
03/08:00pm 10.6 4.4 2.2 56 3.6 WSW 24 33 13 18 1019.8 - 0.0
03/07:45pm 10.7 4.9 2.4 56 3.6 WSW 22 37 12 20 1019.6 - 0.0
03/07:30pm 10.4 5.0 2.5 58 3.4 WSW 20 37 11 20 1019.6 - 0.0
03/07:15pm 10.6 5.7 2.2 56 3.6 SW 17 28 9 15 1019.3 - 0.0
03/07:00pm 11.0 4.8 2.1 54 3.8 SW 24 33 13 18 1019.0 - 0.0
03/06:45pm 11.3 5.4 1.6 51 4.1 SW 22 33 12 18 1018.8 - 0.0
03/06:30pm 11.6 5.3 1.4 49 4.3 WSW 24 37 13 20 1018.4 - 0.0
03/06:15pm 11.9 5.9 1.2 48 4.5 WSW 22 33 12 18 1018.1 - 0.0
03/06:00pm 12.3 6.7 1.1 46 4.8 W 20 39 11 21 1017.8 - 0.0
03/05:45pm 12.6 6.2 1.2 45 4.9 WSW 24 39 13 21 1017.4 - 0.0
03/05:30pm 12.6 6.6 1.3 46 4.8 WSW 22 35 12 19 1017.2 - 0.0
03/05:15pm 12.7 6.8 1.4 46 4.9 WSW 22 37 12 20 1017.0 - 0.0
03/05:00pm 13.1 7.2 1.6 45 5.0 WSW 22 41 12 22 1016.6 - 0.0
03/04:45pm 13.6 7.3 1.5 43 5.3 WSW 24 37 13 20 1016.3 - 0.0
03/04:30pm 14.0 6.5 1.4 42 5.5 WSW 30 43 16 23 1015.9 - 0.0
03/04:15pm 14.5 7.8 1.7 42 5.6 WSW 26 39 14 21 1015.5 - 0.0
03/04:00pm 14.6 6.8 1.4 40 5.8 W 32 48 17 26 1015.2 - 0.0
03/03:45pm 14.8 7.0 1.4 40 5.9 WSW 32 50 17 27 1015.0 - 0.0
03/03:30pm 15.3 8.7 1.8 40 6.0 WSW 26 43 14 23 1014.8 - 0.0
03/03:15pm 15.3 8.7 1.8 40 6.0 W 26 39 14 21 1014.4 - 0.0
03/03:00pm 15.2 7.3 1.3 39 6.1 W 32 48 17 26 1014.0 - 0.0
03/02:45pm 15.4 7.3 1.1 38 6.3 WSW 33 48 18 26 1013.9 - 0.0
03/02:30pm 15.6 7.5 0.9 37 6.4 W 33 52 18 28 1013.8 - 0.0
03/02:15pm 15.8 8.7 1.3 37 6.4 WSW 28 46 15 25 1013.6 - 0.0
03/02:00pm 15.8 8.7 1.5 38 6.3 WSW 28 41 15 22 1013.4 - 0.0
03/01:45pm 15.9 10.4 1.7 38 6.3 WSW 20 37 11 20 1013.3 - 0.0
03/01:30pm 15.6 9.6 1.3 38 6.3 W 22 37 12 20 1013.3 - 0.0
03/01:15pm 15.7 9.4 1.4 38 6.3 W 24 37 13 20 1013.4 - 0.0
03/01:00pm 15.6 9.3 1.7 39 6.2 WSW 24 39 13 21 1013.4 - 0.0
03/12:45pm 15.8 9.9 1.8 39 6.2 WSW 22 33 12 18 1013.4 - 0.0
03/12:30pm 15.5 9.6 1.6 39 6.1 WSW 22 32 12 17 1013.6 - 0.0
03/12:15pm 15.5 9.6 1.7 39 6.1 W 22 37 12 20 1013.7 - 0.0
03/12:00pm 15.2 9.9 1.8 40 5.9 W 19 32 10 17 1013.8 - 0.0
03/11:45am 15.0 9.4 1.5 40 5.9 W 20 32 11 17 1014.0 - 0.0
03/11:30am 14.7 8.8 1.6 41 5.8 W 22 33 12 18 1014.2 - 0.0
03/11:15am 14.6 9.7 2.2 43 5.5 W 17 26 9 14 1014.3 - 0.0
03/11:00am 14.0 9.1 1.9 44 5.3 W 17 26 9 14 1014.5 - 0.0
03/10:45am 13.9 9.8 2.1 45 5.2 W 13 26 7 14 1014.8 - 0.0
03/10:30am 13.3 8.8 2.0 46 4.9 WNW 15 28 8 15 1014.8 - 0.0
03/10:15am 12.7 7.7 1.6 46 4.8 WNW 17 24 9 13 1014.8 - 0.0
03/10:00am 12.3 8.5 1.6 48 4.6 WNW 11 24 6 13 1014.8 - 0.0
03/09:45am 11.8 8.4 1.6 49 4.4 NW 9 20 5 11 1014.9 - 0.0
03/09:30am 11.2 7.3 1.0 49 4.3 NW 11 17 6 9 1014.8 - 0.0
03/09:15am 10.8 6.8 0.7 49 4.2 NW 11 17 6 9 1014.8 - 0.0
03/09:00am 10.3 6.3 0.4 50 4.1 NW 11 20 6 11 1014.8 - 0.0
03/08:45am 10.1 6.1 0.6 51 3.9 NW 11 22 6 12 1014.7 - 0.0
03/08:30am 9.4 5.3 0.1 52 3.8 NW 11 19 6 10 1014.6 - 0.0
03/08:15am 9.1 5.0 -0.3 52 3.7 NW 11 17 6 9 1014.6 - 0.0
03/08:00am 8.8 4.3 -0.5 52 3.7 NW 13 19 7 10 1014.5 - 0.0
03/07:45am 8.3 2.6 -0.7 53 3.5 NW 19 20 10 11 1014.5 - 0.0
03/07:30am 8.1 2.2 -0.8 53 3.5 WNW 20 22 11 12 1014.3 - 0.0
03/07:15am 7.8 1.5 -0.7 55 3.3 NW 22 24 12 13 1014.1 - 0.0
03/07:00am 7.8 2.0 -0.4 56 3.2 NW 20 24 11 13 1014.0 - 0.0
03/06:45am 8.1 2.5 -0.3 55 3.3 WNW 19 24 10 13 1013.9 - 0.0
03/06:30am 8.7 3.1 -0.1 54 3.5 WNW 19 28 10 15 1013.8 - 0.0
03/06:15am 9.0 2.8 -0.1 53 3.6 WNW 22 33 12 18 1013.8 - 0.0
03/06:00am 9.0 1.7 -0.1 53 3.6 W 28 35 15 19 1013.8 - 0.0
03/05:45am 8.8 1.9 -0.1 53 3.6 W 26 35 14 19 1013.7 - 0.0
03/05:30am 8.4 1.4 -0.2 54 3.4 W 26 33 14 18 1013.5 - 0.0
03/05:15am 8.7 2.1 -0.3 53 3.6 W 24 32 13 17 1013.4 - 0.0
03/05:00am 8.8 2.2 -0.4 52 3.6 W 24 35 13 19 1013.3 - 0.0
03/04:45am 9.0 2.4 -0.5 51 3.8 W 24 33 13 18 1013.2 - 0.0
03/04:30am 9.1 1.3 -0.6 50 3.8 W 30 37 16 20 1013.2 - 0.0
03/04:15am 9.1 1.7 -0.8 50 3.9 W 28 39 15 21 1013.3 - 0.0
03/04:00am 9.2 1.0 -0.9 49 4.0 W 32 43 17 23 1013.3 - 0.0
03/03:45am 9.2 2.1 -1.1 48 4.0 W 26 35 14 19 1013.5 - 0.0
03/03:30am 9.4 1.9 -1.1 48 4.1 W 28 41 15 22 1013.5 - 0.0
03/03:15am 9.5 1.3 -1.1 47 4.2 W 32 41 17 22 1013.5 - 0.0
03/03:00am 9.6 1.4 -1.3 46 4.3 W 32 43 17 23 1013.6 - 0.0
03/02:45am 9.8 1.5 -1.4 45 4.4 WSW 32 43 17 23 1013.6 - 0.0
03/02:30am 9.9 1.6 -1.5 45 4.5 WSW 32 48 17 26 1013.6 - 0.0
03/02:15am 9.9 3.2 -1.3 45 4.4 WSW 24 39 13 21 1013.7 - 0.0
03/02:00am 10.0 4.1 -1.1 46 4.4 WSW 20 33 11 18 1013.7 - 0.0
03/01:45am 10.1 3.8 -0.9 46 4.4 WSW 22 30 12 16 1013.6 - 0.0
03/01:30am 10.4 4.1 -0.7 46 4.4 WSW 22 30 12 16 1013.6 - 0.0
03/01:15am 10.9 4.7 -0.5 45 4.6 WSW 22 32 12 17 1013.6 - 0.0
03/01:00am 11.3 5.5 -0.4 44 4.8 WSW 20 24 11 13 1013.6 - 0.0
03/12:45am 11.5 6.3 -0.2 44 4.8 WSW 17 22 9 12 1013.7 - 0.0
03/12:30am 11.9 6.8 0.6 46 4.7 WSW 17 28 9 15 1013.7 - 0.0
03/12:15am 11.9 6.4 1.9 50 4.3 WSW 20 30 11 16 1013.6 - 0.0
03/12:00am 12.1 6.7 4.3 59 3.6 WSW 22 28 12 15 1013.4 - 0.0
 
Date/Time
EST
Temp
°C
App
Temp
°C
Dew
Point
Rel
Hum
%
Delta-T
°C
Wind Press
QNH
hPa
Press
MSL
hPa
Rain
since 9 am
mm
Dir
 
Spd
km/h
Gust
km/h
Spd
kts
Gust
kts
02/11:45pm 12.6 7.0 5.6 62 3.3 WSW 24 32 13 17 1013.5 - 0.0
02/11:30pm 12.5 8.5 6.5 67 2.9 SW 17 24 9 13 1013.6 - 0.0
02/11:15pm 12.5 10.0 6.4 66 2.9 SW 9 13 5 7 1013.7 - 0.0
02/11:00pm 12.9 10.7 6.3 64 3.2 SW 7 13 4 7 1013.7 - 0.0
02/10:45pm 13.6 11.1 6.6 62 3.4 WSW 9 17 5 9 1013.7 - 0.0
02/10:30pm 14.3 10.8 7.1 62 3.5 WSW 15 20 8 11 1013.5 - 0.0
02/10:15pm 14.6 10.7 7.3 61 3.6 W 17 24 9 13 1013.5 - 0.0
02/10:00pm 15.0 10.8 7.6 61 3.7 W 19 26 10 14 1013.2 - 0.0
02/09:45pm 15.4 10.3 7.7 60 3.9 W 24 33 13 18 1013.3 - 0.0
02/09:30pm 15.6 10.5 7.5 58 4.1 W 24 32 13 17 1013.4 - 0.0
02/09:15pm 15.8 10.7 7.5 58 4.2 W 24 37 13 20 1013.4 - 0.0
02/09:00pm 16.0 10.4 7.2 56 4.4 W 26 37 14 20 1013.2 - 0.0
02/08:45pm 16.3 10.2 6.8 53 4.7 W 28 37 15 20 1013.2 - 0.0
02/08:30pm 16.6 10.9 6.6 51 4.9 W 26 32 14 17 1013.2 - 0.0
02/08:15pm 17.0 11.3 6.6 50 5.2 W 26 33 14 18 1013.2 - 0.0
02/08:00pm 17.2 11.9 6.6 49 5.3 W 24 32 13 17 1013.5 - 0.0
02/07:45pm 17.6 12.6 6.6 48 5.5 W 22 32 12 17 1013.4 - 0.0
02/07:30pm 18.2 13.5 6.2 45 6.0 W 20 32 11 17 1013.4 - 0.0
02/07:15pm 18.6 13.9 6.2 44 6.2 W 20 28 11 15 1013.1 - 0.0
02/07:00pm 18.1 14.0 6.2 45 5.9 WNW 17 26 9 14 1012.8 - 0.0
02/06:45pm 18.3 13.8 5.9 44 6.1 WSW 19 22 10 12 1013.4 - 0.0
02/06:30pm 18.9 14.4 5.9 42 6.4 WSW 19 26 10 14 1013.0 - 0.0
02/06:15pm 19.4 14.8 6.3 42 6.6 W 20 28 11 15 1012.5 - 0.0
02/06:00pm 19.4 15.0 6.4 42 6.5 W 19 28 10 15 1012.0 - 0.0
02/05:45pm 19.6 15.1 6.3 42 6.7 W 19 28 10 15 1011.8 - 0.0
02/05:30pm 19.7 15.1 6.3 41 6.7 W 20 30 11 16 1011.6 - 0.0
02/05:15pm 20.2 16.1 6.0 39 7.1 W 17 22 9 12 1011.2 - 0.0
02/05:00pm 21.1 16.9 5.9 37 7.7 W 17 28 9 15 1010.7 - 0.0
02/04:45pm 21.7 18.3 6.0 36 7.9 W 13 19 7 10 1010.4 - 0.0
02/04:30pm 22.3 18.0 5.4 33 8.5 W 17 22 9 12 1010.2 - 0.0
02/04:15pm 22.7 17.0 4.9 31 8.9 W 24 39 13 21 1010.1 - 0.0
02/04:00pm 23.0 16.2 5.2 31 9.0 WNW 30 44 16 24 1010.1 - 0.0
02/03:45pm 23.0 20.0 7.8 37 8.0 WNW 13 30 7 16 1010.0 - 0.0
02/03:30pm 22.7 19.7 7.8 38 7.8 NNW 13 22 7 12 1009.9 - 0.0
02/03:15pm 22.4 19.4 7.8 39 7.7 NNW 13 19 7 10 1010.0 - 0.0
02/03:00pm 22.3 18.9 7.7 39 7.7 NNW 15 22 8 12 1010.0 - 0.0
02/02:45pm 22.0 18.3 7.9 40 7.4 NNW 17 30 9 16 1010.1 - 0.0
02/02:30pm 21.9 18.8 7.3 39 7.6 NW 13 22 7 12 1010.6 - 0.0
02/02:15pm 21.5 19.3 7.7 41 7.2 W 9 15 5 8 1010.6 - 0.0
02/02:00pm 20.8 18.6 7.7 42 6.8 W 9 15 5 8 1010.8 - 0.0
02/01:45pm 20.4 18.7 8.2 45 6.4 W 7 15 4 8 1011.1 - 0.0
02/01:30pm 19.7 18.0 8.3 47 6.0 W 7 13 4 7 1011.4 - 0.0
02/01:15pm 19.8 18.1 8.5 48 5.9 W 7 13 4 7 1011.8 - 0.0
02/01:00pm 19.7 18.3 8.7 49 5.8 W 6 11 3 6 1012.0 - 0.0
02/12:45pm 18.9 17.1 8.1 49 5.6 W 7 13 4 7 1012.4 - 0.0
02/12:30pm 19.1 16.9 7.7 47 5.9 W 9 15 5 8 1012.5 - 0.0
02/12:15pm 18.5 16.6 7.5 48 5.6 WNW 7 11 4 6 1012.7 - 0.0
02/12:00pm 18.3 16.6 7.7 50 5.4 NW 6 9 3 5 1012.9 - 0.0
02/11:45am 18.2 16.3 7.4 49 5.5 NW 7 15 4 8 1013.0 - 0.0
02/11:30am 18.1 16.1 7.3 49 5.5 NW 7 11 4 6 1013.2 - 0.0
02/11:15am 17.7 15.3 7.1 50 5.3 NW 9 20 5 11 1013.7 - 0.0
02/11:00am 17.3 14.2 7.1 51 5.1 NW 13 19 7 10 1014.1 - 0.0
02/10:45am 17.2 14.0 6.9 50 5.2 NNW 13 20 7 11 1014.3 - 0.0
02/10:30am 16.8 14.0 6.8 51 5.0 WNW 11 17 6 9 1014.7 - 0.0
02/10:15am 16.4 13.2 6.8 53 4.8 WNW 13 19 7 10 1015.0 - 0.0
02/10:00am 15.7 13.2 6.5 54 4.5 WNW 9 17 5 9 1015.0 - 0.0
02/09:45am 15.2 13.3 6.7 57 4.2 NW 6 11 3 6 1015.0 - 0.0
02/09:30am 14.8 13.5 7.5 61 3.6 WNW 4 7 2 4 1015.1 - 0.0
02/09:15am 14.1 12.5 7.9 66 3.1 SW 6 7 3 4 1015.2 - 0.0
02/09:00am 12.6 10.5 8.1 74 2.2 SW 9 15 5 8 1015.6 - 0.0
02/08:45am 10.4 6.8 6.8 78 1.7 SSW 15 19 8 10 1016.0 - 0.0
02/08:30am 8.9 5.4 5.3 78 1.6 SW 13 17 7 9 1016.0 - 0.0
02/08:15am 9.0 6.8 5.3 77 1.7 W 6 9 3 5 1015.8 - 0.0
02/08:00am 9.0 6.8 5.2 77 1.7 W 6 9 3 5 1015.8 - 0.0
02/07:45am 9.1 6.9 5.3 77 1.7 W 6 9 3 5 1015.7 - 0.0
02/07:30am 8.9 6.6 5.0 76 1.8 W 6 9 3 5 1015.7 - 0.0
02/07:15am 9.1 6.9 5.1 76 1.8 WNW 6 7 3 4 1015.6 - 0.0
02/07:00am 9.0 6.7 4.9 75 1.8 NW 6 7 3 4 1015.4 - 0.0
02/06:45am 9.1 6.8 4.7 74 2.0 NW 6 7 3 4 1015.3 - 0.0
02/06:30am 9.6 6.7 4.6 71 2.2 NW 9 20 5 11 1015.3 - 0.0
02/06:15am 10.2 6.6 4.8 69 2.4 NNW 13 15 7 8 1015.2 - 0.0
02/06:00am 10.4 7.6 5.1 69 2.4 NW 9 13 5 7 1015.2 - 0.0
02/05:45am 10.4 7.9 4.6 67 2.6 WNW 7 9 4 5 1015.3 - 0.0
02/05:30am 11.6 9.0 4.4 61 3.3 WNW 7 13 4 7 1015.4 - 0.0
02/05:15am 12.9 10.0 4.7 57 3.8 NW 9 15 5 8 1015.5 - 0.0
02/05:00am 13.5 10.7 5.0 56 4.0 WNW 9 19 5 10 1015.6 - 0.0
02/04:45am 13.4 10.2 5.2 57 3.8 NW 11 17 6 9 1015.5 - 0.0
02/04:30am 13.3 10.2 5.5 59 3.7 NW 11 17 6 9 1015.5 - 0.0
02/04:15am 12.9 10.3 5.9 62 3.3 NW 9 15 5 8 1015.6 - 0.0
02/04:00am 12.3 9.7 6.0 65 3.0 NW 9 15 5 8 1015.7 - 0.0
02/03:45am 12.4 9.8 6.1 65 3.0 NW 9 17 5 9 1015.7 - 0.0
02/03:30am 12.1 9.4 5.8 65 3.0 WNW 9 13 5 7 1015.8 - 0.0
02/03:15am 12.1 9.5 6.0 66 2.9 NW 9 13 5 7 1015.9 - 0.0
02/03:00am 11.6 8.8 5.3 65 2.9 NW 9 15 5 8 1016.0 - 0.0
02/02:45am 12.7 9.9 5.3 60 3.5 NW 9 11 5 6 1016.2 - 0.0
02/02:30am 12.8 9.8 5.8 62 3.3 NW 11 13 6 7 1016.3 - 0.0
02/02:15am 12.4 9.0 6.0 65 3.0 NW 13 17 7 9 1016.5 - 0.0
02/02:00am 11.1 7.6 5.4 68 2.6 WNW 13 17 7 9 1016.8 - 0.0
02/01:45am 10.9 7.6 4.6 65 2.9 W 11 15 6 8 1017.0 - 0.0
02/01:30am 12.9 9.6 4.8 58 3.8 WNW 11 13 6 7 1016.9 - 0.0
02/01:15am 13.4 9.9 5.4 58 3.8 WNW 13 19 7 10 1016.9 - 0.0
02/01:00am 12.7 9.3 5.8 63 3.3 WNW 13 17 7 9 1016.9 - 0.0
02/12:45am 11.5 7.9 5.0 64 3.0 NW 13 17 7 9 1016.9 - 0.0
02/12:30am 12.3 9.0 4.6 59 3.5 NW 11 17 6 9 1016.8 - 0.0
02/12:15am 13.5 9.5 4.8 55 4.1 NNW 15 17 8 9 1016.7 - 0.0
02/12:00am 13.6 9.4 5.6 58 3.8 NNW 17 19 9 10 1016.9 - 0.0
 
Date/Time
EST
Temp
°C
App
Temp
°C
Dew
Point
Rel
Hum
%
Delta-T
°C
Wind Press
QNH
hPa
Press
MSL
hPa
Rain
since 9 am
mm
Dir
 
Spd
km/h
Gust
km/h
Spd
kts
Gust
kts
01/11:45pm 12.5 7.7 4.8 59 3.6 NNW 19 20 10 11 1017.0 - 0.0
01/11:30pm 12.9 8.9 4.7 57 3.8 NNW 15 19 8 10 1017.1 - 0.0
01/11:15pm 13.2 9.5 4.7 56 3.9 NNW 13 17 7 9 1017.2 - 0.0
01/11:00pm 13.3 10.4 4.7 56 4.0 NNW 9 15 5 8 1017.4 - 0.0
01/10:45pm 13.2 10.7 4.5 55 4.0 NW 7 9 4 5 1017.6 - 0.0
01/10:30pm 13.6 10.6 4.3 53 4.3 NNW 9 9 5 5 1017.7 - 0.0
01/10:15pm 14.4 11.4 4.2 50 4.7 NNW 9 11 5 6 1017.4 - 0.0
01/10:00pm 15.0 11.6 4.2 48 5.0 NW 11 13 6 7 1017.6 - 0.0
01/09:45pm 15.8 12.5 4.4 46 5.4 NW 11 17 6 9 1017.6 - 0.0
01/09:30pm 15.5 12.6 4.4 47 5.2 NW 9 13 5 7 1017.7 - 0.0
01/09:15pm 15.3 12.7 4.3 48 5.1 NW 7 13 4 7 1017.8 - 0.0
01/09:00pm 15.3 12.9 4.4 48 5.1 NW 6 7 3 4 1017.8 - 0.0
01/08:45pm 15.7 13.1 4.2 46 5.4 WNW 7 13 4 7 1017.8 - 0.0
01/08:30pm 16.0 12.6 4.1 45 5.6 NW 11 17 6 9 1017.6 - 0.0
01/08:15pm 16.0 11.8 4.0 44 5.6 NW 15 19 8 10 1017.3 - 0.0
01/08:00pm 15.9 11.3 3.9 44 5.6 NW 17 19 9 10 1017.1 - 0.0
01/07:45pm 16.0 11.4 3.7 44 5.7 NW 17 20 9 11 1017.1 - 0.0
01/07:30pm 16.1 11.9 3.6 43 5.8 NNW 15 19 8 10 1016.9 - 0.0
01/07:15pm 17.0 13.1 3.6 41 6.3 NNW 13 19 7 10 1016.8 - 0.0
01/07:00pm 17.3 13.0 3.5 39 6.4 NNW 15 26 8 14 1016.6 - 0.0
01/06:45pm 17.6 12.6 3.4 38 6.6 NNW 19 28 10 15 1016.4 - 0.0
01/06:30pm 17.6 12.4 3.3 38 6.7 NNW 20 33 11 18 1016.2 - 0.0
01/06:15pm 17.4 12.3 3.3 39 6.6 NNW 19 26 10 14 1016.2 - 0.0
01/06:00pm 17.1 11.8 3.2 39 6.4 NNW 20 30 11 16 1016.0 - 0.0
01/05:45pm 17.0 11.4 3.2 39 6.4 NNW 22 32 12 17 1015.7 - 0.0
01/05:30pm 16.9 11.6 3.2 40 6.3 NNW 20 30 11 16 1015.6 - 0.0
01/05:15pm 17.3 12.2 3.0 38 6.6 NNW 19 26 10 14 1015.5 - 0.0
01/05:00pm 17.9 12.6 2.8 36 7.0 NNW 20 32 11 17 1015.2 - 0.0
01/04:45pm 18.5 13.1 2.6 34 7.4 NNW 20 37 11 20 1015.0 - 0.0
01/04:30pm 18.8 13.6 2.4 33 7.6 NNW 19 28 10 15 1015.1 - 0.0
01/04:15pm 18.8 13.5 2.9 34 7.4 NNW 20 28 11 15 1015.1 - 0.0
01/04:00pm 18.4 13.3 3.2 36 7.1 NNW 19 24 10 13 1015.1 - 0.0
01/03:45pm 19.1 13.8 2.8 34 7.6 NNW 20 33 11 18 1015.1 - 0.0
01/03:30pm 19.8 15.2 3.5 34 7.8 NW 17 26 9 14 1015.2 - 0.0
01/03:15pm 19.8 14.2 3.4 33 7.8 NW 22 35 12 19 1015.2 - 0.0
01/03:00pm 19.3 14.1 3.6 35 7.5 NW 20 32 11 17 1015.3 - 0.0
01/02:45pm 19.4 13.4 3.2 34 7.6 NW 24 37 13 20 1015.3 - 0.0
01/02:30pm 19.5 14.1 2.7 32 7.9 NW 20 37 11 20 1015.4 - 0.0
01/02:15pm 19.4 12.8 2.3 32 7.9 WNW 26 37 14 20 1015.6 - 0.0
01/02:00pm 19.4 13.6 2.3 32 7.9 WNW 22 33 12 18 1015.4 - 0.0
01/01:45pm 19.4 13.4 3.3 34 7.6 WNW 24 44 13 24 1015.3 - 0.0
01/01:30pm 19.9 14.6 4.8 37 7.4 WNW 22 33 12 18 1015.7 - 0.0
01/01:15pm 19.5 13.4 5.0 38 7.1 WNW 26 39 14 21 1015.9 - 0.0
01/01:00pm 19.1 14.0 5.9 42 6.6 WNW 22 32 12 17 1016.1 - 0.0
01/12:45pm 18.6 14.1 6.1 44 6.2 WNW 19 26 10 14 1016.2 - 0.0
01/12:30pm 18.0 14.3 6.3 46 5.8 WNW 15 22 8 12 1016.4 - 0.0
01/12:15pm 17.2 12.5 6.0 47 5.5 W 20 26 11 14 1016.5 - 0.0
01/12:00pm 16.8 12.4 6.5 50 5.1 W 19 26 10 14 1016.8 - 0.0
01/11:45am 16.0 11.3 6.2 52 4.8 W 20 30 11 16 1017.1 - 0.0
01/11:30am 16.0 10.5 6.0 51 4.9 W 24 43 13 23 1017.2 - 0.0
01/11:15am 16.6 8.6 5.7 48 5.3 W 37 52 20 28 1017.0 - 0.0
01/11:00am 16.0 7.7 6.0 51 4.9 W 39 54 21 29 1016.8 - 0.0
01/10:45am 15.0 8.8 6.2 55 4.3 WNW 28 43 15 23 1017.2 - 0.0
01/10:30am 14.3 8.1 6.2 58 3.9 WNW 28 41 15 22 1017.6 - 0.0
01/10:15am 13.6 8.6 6.4 62 3.5 WNW 22 35 12 19 1017.9 - 0.0
01/10:00am 12.0 6.8 5.4 64 3.1 NW 22 32 12 17 1017.8 - 0.0
01/09:45am 11.6 6.7 5.2 65 3.0 NW 20 32 11 17 1018.1 - 0.0
01/09:30am 11.3 7.0 5.2 66 2.8 NW 17 26 9 14 1018.3 - 0.0
01/09:15am 10.9 6.1 4.9 66 2.7 NW 19 24 10 13 1018.4 - 0.0
01/09:00am 10.4 5.6 4.9 69 2.5 WNW 19 24 10 13 1018.6 - 0.0
01/08:45am 9.4 4.4 4.5 71 2.2 WNW 20 26 11 14 1018.8 - 0.0
01/08:30am 8.8 2.9 3.9 71 2.1 NW 24 30 13 16 1018.8 - 0.0
01/08:15am 8.7 2.4 3.9 72 2.1 NW 26 33 14 18 1018.5 - 0.0
01/08:00am 8.6 3.1 3.9 72 2.1 NW 22 32 12 17 1018.3 - 0.0
01/07:45am 8.5 3.6 4.1 74 1.9 NW 19 24 10 13 1018.4 - 0.0
01/07:30am 8.0 3.0 3.7 74 1.9 NW 19 24 10 13 1018.2 - 0.0
01/07:15am 7.8 3.2 3.7 75 1.8 NW 17 28 9 15 1018.1 - 0.0
01/07:00am 7.7 3.5 3.6 75 1.8 NW 15 22 8 12 1018.0 - 0.0
01/06:45am 7.6 3.4 3.6 76 1.7 NW 15 22 8 12 1017.9 - 0.0
01/06:30am 7.4 3.1 3.4 76 1.7 NW 15 19 8 10 1017.7 - 0.0
01/06:15am 7.6 3.7 3.5 75 1.8 WNW 13 19 7 10 1017.7 - 0.0
01/06:00am 7.6 3.7 3.5 75 1.8 NW 13 19 7 10 1017.8 - 0.0
01/05:45am 7.7 3.8 3.5 75 1.8 NW 13 19 7 10 1017.8 - 0.0
01/05:30am 7.8 3.2 3.7 75 1.8 NW 17 19 9 10 1017.7 - 0.0
01/05:15am 7.7 3.4 3.5 75 1.8 NW 15 20 8 11 1017.8 - 0.0
01/05:00am 8.3 4.6 4.2 75 1.8 NW 13 20 7 11 1018.0 - 0.0
01/04:45am 8.2 4.9 4.4 77 1.7 WNW 11 22 6 12 1018.2 - 0.0
01/04:30am 7.7 4.3 3.9 77 1.6 WNW 11 17 6 9 1018.5 - 0.0
01/04:15am 8.0 5.0 4.0 76 1.7 W 9 13 5 7 1018.7 - 0.0
01/04:00am 8.7 5.4 4.6 75 1.8 WNW 11 15 6 8 1018.8 - 0.0
01/03:45am 8.5 4.4 4.6 76 1.7 WNW 15 19 8 10 1018.7 - 0.0
01/03:30am 8.7 5.1 4.8 76 1.7 WNW 13 17 7 9 1018.7 - 0.0
01/03:15am 8.5 4.4 4.3 75 1.9 WNW 15 20 8 11 1018.7 - 0.0
01/03:00am 9.7 5.0 5.0 72 2.1 W 19 20 10 11 1018.8 - 0.0
01/02:45am 10.4 5.9 6.3 76 1.9 W 19 20 10 11 1018.9 - 0.0
01/02:30am 10.3 6.7 6.8 79 1.7 W 15 19 8 10 1019.1 - 0.0
01/02:15am 9.9 6.4 7.0 82 1.4 W 15 17 8 9 1019.4 - 0.0
01/02:00am 9.7 6.2 7.1 84 1.2 W 15 17 8 9 1019.5 - 0.0
01/01:45am 10.3 6.7 8.2 87 1.0 W 17 19 9 10 1019.5 - 0.0
01/01:30am 8.5 4.5 6.6 88 0.9 W 17 20 9 11 1019.5 - 0.0
01/01:15am 6.8 3.1 4.6 86 1.0 W 13 17 7 9 1019.6 - 0.0
01/01:00am 6.7 3.4 4.4 85 1.0 W 11 17 6 9 1019.8 - 0.0
01/12:45am 7.0 3.7 4.7 85 1.0 W 11 15 6 8 1020.0 - 0.0
01/12:30am 6.7 3.0 4.4 85 1.0 WSW 13 17 7 9 1020.3 - 0.0
01/12:15am 6.6 2.8 4.0 83 1.1 WSW 13 15 7 8 1020.5 - 0.0
01/12:00am 7.2 3.9 4.6 83 1.1 W 11 13 6 7 1020.8 - 0.0
 
Date/Time
EST
Temp
°C
App
Temp
°C
Dew
Point
Rel
Hum
%
Delta-T
°C
Wind Press
QNH
hPa
Press
MSL
hPa
Rain
since 9 am
mm
Dir
 
Spd
km/h
Gust
km/h
Spd
kts
Gust
kts
31/11:45pm 7.7 4.5 5.1 83 1.2 W 11 13 6 7 1021.3 - 0.0
31/11:30pm 7.8 5.0 5.2 84 1.2 W 9 13 5 7 1021.3 - 0.0
31/11:15pm 7.9 5.5 5.2 83 1.2 NW 7 9 4 5 1021.3 - 0.0
31/11:00pm 7.8 4.9 4.9 82 1.3 NNW 9 11 5 6 1021.5 - 0.0
31/10:45pm 8.0 5.5 5.0 81 1.3 NNW 7 13 4 7 1021.5 - 0.0
31/10:30pm 7.9 5.0 4.7 80 1.4 NNW 9 13 5 7 1021.5 - 0.0
31/10:15pm 8.1 5.6 4.7 79 1.5 N 7 9 4 5 1021.4 - 0.0
31/10:00pm 9.2 6.5 5.7 79 1.6 N 9 11 5 6 1021.5 - 0.0
31/09:45pm 9.6 7.3 5.9 78 1.7 N 7 11 4 6 1021.5 - 0.0
31/09:30pm 9.9 7.6 5.9 76 1.9 NNE 7 11 4 6 1021.3 - 0.0
31/09:15pm 10.5 8.3 6.4 76 1.9 NE 7 11 4 6 1021.2 - 0.0
31/09:00pm 10.3 7.3 6.2 76 1.9 ENE 11 13 6 7 1021.1 - 0.0
31/08:45pm 10.4 7.0 5.9 73 2.1 ENE 13 15 7 8 1021.1 - 0.0

Other Formats:

Comma delimited format used in spreadsheet applications
http://www.bom.gov.au/fwo/IDN60801/IDN60801.95757.axf

JavaScript Object Notation format (JSON) in row-major order
http://www.bom.gov.au/fwo/IDN60801/IDN60801.95757.json